createdAt,value
2017-10-28T00:00:30.712Z,1003.7
2017-10-28T00:01:31.377Z,1003.7
2017-10-28T00:02:32.041Z,1003.7
2017-10-28T00:03:32.705Z,1003.7
2017-10-28T00:04:33.370Z,1003.6
2017-10-28T00:05:34.034Z,1003.6
2017-10-28T00:06:34.699Z,1003.6
2017-10-28T00:07:35.414Z,1003.6
2017-10-28T00:08:36.079Z,1003.6
2017-10-28T00:09:36.742Z,1003.5
2017-10-28T00:10:37.406Z,1003.5
2017-10-28T00:11:38.121Z,1003.5
2017-10-28T00:12:38.786Z,1003.5
2017-10-28T00:13:39.504Z,1003.5
2017-10-28T00:14:40.222Z,1003.5
2017-10-28T00:15:40.933Z,1003.5
2017-10-28T00:16:41.646Z,1003.5
2017-10-28T00:17:42.312Z,1003.5
2017-10-28T00:18:42.975Z,1003.5
2017-10-28T00:19:43.640Z,1003.5
2017-10-28T00:20:44.305Z,1003.5
2017-10-28T00:21:44.971Z,1003.4
2017-10-28T00:22:45.640Z,1003.5
2017-10-28T00:23:46.354Z,1003.4
2017-10-28T00:24:47.023Z,1003.4
2017-10-28T00:25:47.683Z,1003.4
2017-10-28T00:26:48.398Z,1003.4
2017-10-28T00:27:49.412Z,1003.4
2017-10-28T00:28:50.128Z,1003.4
2017-10-28T00:29:50.843Z,1003.4
2017-10-28T00:30:51.508Z,1003.3
2017-10-28T00:31:52.222Z,1003.3
2017-10-28T00:32:52.936Z,1003.2
2017-10-28T00:33:53.600Z,1003.3
2017-10-28T00:34:54.265Z,1003.3
2017-10-28T00:35:54.929Z,1003.2
2017-10-28T00:36:55.592Z,1003.2
2017-10-28T00:37:56.258Z,1003.1
2017-10-28T00:38:56.971Z,1003.1
2017-10-28T00:39:57.638Z,1003.1
2017-10-28T00:40:58.305Z,1003.1
2017-10-28T00:41:58.974Z,1003.1
2017-10-28T00:42:59.635Z,1003.0
2017-10-28T00:44:00.299Z,1003.0
2017-10-28T00:45:01.013Z,1003.0
2017-10-28T00:46:01.729Z,1003.0
2017-10-28T00:47:02.395Z,1003.0
2017-10-28T00:48:03.059Z,1002.9
2017-10-28T00:49:03.723Z,1002.9
2017-10-28T00:50:04.390Z,1002.9
2017-10-28T00:51:05.101Z,1003.0
2017-10-28T00:52:05.822Z,1002.9
2017-10-28T00:53:06.481Z,1002.9
2017-10-28T00:54:07.146Z,1002.9
2017-10-28T00:55:07.809Z,1002.8
2017-10-28T00:56:08.473Z,1002.8
2017-10-28T00:57:09.137Z,1002.8
2017-10-28T00:58:09.802Z,1002.8
2017-10-28T00:59:10.468Z,1002.8
2017-10-28T01:00:11.133Z,1002.8
2017-10-28T01:01:11.798Z,1002.8
2017-10-28T01:02:12.464Z,1002.8
2017-10-28T01:03:13.131Z,1002.9
2017-10-28T01:04:13.800Z,1002.9
2017-10-28T01:05:14.494Z,1002.9
2017-10-28T01:06:15.159Z,1002.9
2017-10-28T01:07:15.874Z,1002.9
2017-10-28T01:08:16.587Z,1002.9
2017-10-28T01:09:17.253Z,1002.9
2017-10-28T01:10:17.927Z,1002.9
2017-10-28T01:11:18.588Z,1002.9
2017-10-28T01:12:19.250Z,1002.9
2017-10-28T01:13:19.914Z,1002.9
2017-10-28T01:14:20.629Z,1002.9
2017-10-28T01:15:21.293Z,1002.9
2017-10-28T01:16:21.963Z,1002.9
2017-10-28T01:17:22.674Z,1002.8
2017-10-28T01:18:23.338Z,1002.8
2017-10-28T01:19:24.053Z,1002.9
2017-10-28T01:20:24.718Z,1002.8
2017-10-28T01:21:25.385Z,1002.8
2017-10-28T01:22:26.051Z,1002.7
2017-10-28T01:23:26.766Z,1002.6
2017-10-28T01:24:27.480Z,1002.6
2017-10-28T01:25:28.145Z,1002.5
2017-10-28T01:26:28.857Z,1002.6
2017-10-28T01:27:29.521Z,1002.5
2017-10-28T01:28:30.189Z,1002.5
2017-10-28T01:29:30.887Z,1002.4
2017-10-28T01:30:31.563Z,1002.4
2017-10-28T01:31:32.265Z,1002.4
2017-10-28T01:32:32.931Z,1002.3
2017-10-28T01:33:33.598Z,1002.2
2017-10-28T01:34:34.262Z,1002.2
2017-10-28T01:35:34.927Z,1002.2
2017-10-28T01:36:35.591Z,1002.2
2017-10-28T01:37:36.305Z,1002.2
2017-10-28T01:38:37.019Z,1002.2
2017-10-28T01:39:37.683Z,1002.2
2017-10-28T01:40:38.347Z,1002.2
2017-10-28T01:41:39.013Z,1002.1
2017-10-28T01:42:39.673Z,1002.1
2017-10-28T01:43:40.399Z,1002.1
2017-10-28T01:44:41.053Z,1002.0
2017-10-28T01:45:41.718Z,1002.0
2017-10-28T01:46:42.387Z,1002.0
2017-10-28T01:47:43.051Z,1002.0
2017-10-28T01:48:43.716Z,1002.0
2017-10-28T01:49:44.430Z,1002.0
2017-10-28T01:50:45.144Z,1002.0
2017-10-28T01:51:45.808Z,1001.9
2017-10-28T01:52:46.472Z,1001.9
2017-10-28T01:53:47.136Z,1001.8
2017-10-28T01:54:47.801Z,1001.8
2017-10-28T01:55:48.516Z,1001.9
2017-10-28T01:56:49.235Z,1001.8
2017-10-28T01:57:49.896Z,1001.8
2017-10-28T01:58:50.560Z,1001.8
2017-10-28T01:59:51.224Z,1001.7
2017-10-28T02:00:51.887Z,1001.7
2017-10-28T02:01:52.550Z,1001.8
2017-10-28T02:02:53.263Z,1001.7
2017-10-28T02:03:53.938Z,1001.7
2017-10-28T02:04:54.643Z,1001.7
2017-10-28T02:05:55.307Z,1001.7
2017-10-28T02:06:55.971Z,1001.7
2017-10-28T02:07:56.685Z,1001.7
2017-10-28T02:08:57.351Z,1001.7
2017-10-28T02:09:58.018Z,1001.7
2017-10-28T02:10:58.682Z,1001.7
2017-10-28T02:11:59.346Z,1001.7
2017-10-28T02:13:00.008Z,1001.7
2017-10-28T02:14:00.671Z,1001.7
2017-10-28T02:15:01.335Z,1001.7
2017-10-28T02:16:02.050Z,1001.6
2017-10-28T02:17:02.764Z,1001.6
2017-10-28T02:18:03.465Z,1001.5
2017-10-28T02:19:04.130Z,1001.5
2017-10-28T02:20:04.847Z,1001.4
2017-10-28T02:21:05.858Z,1001.5
2017-10-28T02:22:06.574Z,1001.5
2017-10-28T02:23:07.238Z,1001.4
2017-10-28T02:24:07.902Z,1001.5
2017-10-28T02:25:08.567Z,1001.5
2017-10-28T02:26:09.231Z,1001.5
2017-10-28T02:27:09.895Z,1001.4
2017-10-28T02:28:10.645Z,1001.5
2017-10-28T02:29:11.310Z,1001.4
2017-10-28T02:30:12.025Z,1001.4
2017-10-28T02:31:12.689Z,1001.4
2017-10-28T02:32:13.390Z,1001.4
2017-10-28T02:33:14.057Z,1001.4
2017-10-28T02:34:14.716Z,1001.4
2017-10-28T02:35:15.380Z,1001.4
2017-10-28T02:36:16.044Z,1001.4
2017-10-28T02:37:16.708Z,1001.4
2017-10-28T02:38:17.371Z,1001.4
2017-10-28T02:39:18.036Z,1001.5
2017-10-28T02:40:18.749Z,1001.4
2017-10-28T02:41:19.415Z,1001.3
2017-10-28T02:42:20.081Z,1001.3
2017-10-28T02:43:20.752Z,1001.4
2017-10-28T02:44:21.410Z,1001.4
2017-10-28T02:45:22.075Z,1001.4
2017-10-28T02:46:22.739Z,1001.5
2017-10-28T02:47:23.451Z,1001.4
2017-10-28T02:48:24.116Z,1001.3
2017-10-28T02:49:24.832Z,1001.3
2017-10-28T02:50:25.496Z,1001.2
2017-10-28T02:51:26.213Z,1001.2
2017-10-28T02:52:26.876Z,1001.1
2017-10-28T02:53:27.541Z,1001.1
2017-10-28T02:54:28.206Z,1001.0
2017-10-28T02:55:28.871Z,1001.0
2017-10-28T02:56:29.594Z,1001.0
2017-10-28T02:57:30.251Z,1001.0
2017-10-28T02:58:30.916Z,1001.0
2017-10-28T02:59:31.582Z,1001.0
2017-10-28T03:00:32.245Z,1001.1
2017-10-28T03:01:32.960Z,1001.1
2017-10-28T03:02:33.623Z,1001.0
2017-10-28T03:03:34.288Z,1001.0
2017-10-28T03:04:35.001Z,1001.0
2017-10-28T03:05:35.673Z,1001.1
2017-10-28T03:06:36.333Z,1001.1
2017-10-28T03:07:36.997Z,1001.0
2017-10-28T03:08:37.663Z,1001.0
2017-10-28T03:09:38.376Z,1001.1
2017-10-28T03:10:39.041Z,1001.1
2017-10-28T03:11:39.705Z,1001.0
2017-10-28T03:12:40.371Z,1001.0
2017-10-28T03:13:41.039Z,1001.0
2017-10-28T03:14:41.700Z,1001.1
2017-10-28T03:15:42.364Z,1000.9
2017-10-28T03:16:43.027Z,1000.8
2017-10-28T03:17:43.692Z,1000.8
2017-10-28T03:18:44.355Z,1000.8
2017-10-28T03:19:45.018Z,1000.8
2017-10-28T03:20:45.682Z,1000.8
2017-10-28T03:21:46.345Z,1000.8
2017-10-28T03:22:47.060Z,1000.8
2017-10-28T03:23:47.776Z,1000.7
2017-10-28T03:24:48.489Z,1000.7
2017-10-28T03:25:49.159Z,1000.6
2017-10-28T03:26:49.856Z,1000.6
2017-10-28T03:27:50.517Z,1000.6
2017-10-28T03:28:51.231Z,1000.6
2017-10-28T03:29:51.895Z,1000.6
2017-10-28T03:30:52.560Z,1000.7
2017-10-28T03:31:53.223Z,1000.7
2017-10-28T03:32:53.887Z,1000.7
2017-10-28T03:33:54.601Z,1000.7
2017-10-28T03:34:55.315Z,1000.7
2017-10-28T03:35:55.986Z,1000.8
2017-10-28T03:36:56.694Z,1000.8
2017-10-28T03:37:57.409Z,1000.9
2017-10-28T03:38:58.074Z,1000.9
2017-10-28T03:39:58.789Z,1000.8
2017-10-28T03:40:59.452Z,1000.8
2017-10-28T03:42:00.116Z,1000.8
2017-10-28T03:43:00.780Z,1000.8
2017-10-28T03:44:01.443Z,1000.8
2017-10-28T03:45:02.159Z,1000.8
2017-10-28T03:46:02.823Z,1000.8
2017-10-28T03:47:03.488Z,1000.8
2017-10-28T03:48:04.201Z,1000.8
2017-10-28T03:49:04.917Z,1000.7
2017-10-28T03:50:05.630Z,1000.7
2017-10-28T03:51:06.293Z,1000.7
2017-10-28T03:52:06.957Z,1000.6
2017-10-28T03:53:07.655Z,1000.6
2017-10-28T03:54:08.321Z,1000.6
2017-10-28T03:55:09.037Z,1000.6
2017-10-28T03:56:09.698Z,1000.6
2017-10-28T03:57:10.413Z,1000.6
2017-10-28T03:58:11.103Z,1000.5
2017-10-28T03:59:11.767Z,1000.5
2017-10-28T04:00:12.431Z,1000.4
2017-10-28T04:01:13.096Z,1000.4
2017-10-28T04:02:13.760Z,1000.4
2017-10-28T04:03:14.426Z,1000.4
2017-10-28T04:04:15.096Z,1000.4
2017-10-28T04:05:15.759Z,1000.4
2017-10-28T04:06:16.422Z,1000.3
2017-10-28T04:07:17.135Z,1000.2
2017-10-28T04:08:17.800Z,1000.2
2017-10-28T04:09:18.515Z,1000.1
2017-10-28T04:10:19.178Z,1000.1
2017-10-28T04:11:19.891Z,1000.1
2017-10-28T04:12:20.555Z,1000.1
2017-10-28T04:13:21.219Z,1000.0
2017-10-28T04:14:21.886Z,999.9
2017-10-28T04:15:22.549Z,999.9
2017-10-28T04:16:23.216Z,1000.0
2017-10-28T04:17:23.880Z,999.9
2017-10-28T04:18:24.550Z,1000.0
2017-10-28T04:19:25.258Z,1000.0
2017-10-28T04:20:25.924Z,1000.0
2017-10-28T04:21:26.595Z,1000.0
2017-10-28T04:22:27.304Z,1000.0
2017-10-28T04:23:28.015Z,999.9
2017-10-28T04:24:28.680Z,1000.0
2017-10-28T04:25:29.396Z,999.9
2017-10-28T04:26:30.066Z,1000.0
2017-10-28T04:27:30.724Z,999.9
2017-10-28T04:28:31.387Z,999.9
2017-10-28T04:29:32.049Z,999.9
2017-10-28T04:30:32.711Z,999.8
2017-10-28T04:31:33.375Z,999.9
2017-10-28T04:32:34.036Z,999.8
2017-10-28T04:33:34.703Z,999.8
2017-10-28T04:34:35.399Z,999.8
2017-10-28T04:35:36.064Z,999.8
2017-10-28T04:36:36.776Z,999.9
2017-10-28T04:37:37.489Z,999.9
2017-10-28T04:38:38.153Z,999.9
2017-10-28T04:39:38.851Z,999.9
2017-10-28T04:40:39.565Z,1000.0
2017-10-28T04:41:40.229Z,1000.1
2017-10-28T04:42:40.894Z,1000.0
2017-10-28T04:43:41.608Z,999.9
2017-10-28T04:44:42.327Z,999.9
2017-10-28T04:45:43.036Z,999.9
2017-10-28T04:46:43.750Z,999.9
2017-10-28T04:47:44.414Z,1000.0
2017-10-28T04:48:45.132Z,1000.1
2017-10-28T04:49:45.853Z,1000.0
2017-10-28T04:50:46.593Z,1000.0
2017-10-28T04:51:47.257Z,1000.0
2017-10-28T04:52:47.923Z,1000.0
2017-10-28T04:53:48.589Z,1000.0
2017-10-28T04:54:49.306Z,1000.0
2017-10-28T04:55:49.969Z,999.9
2017-10-28T04:56:50.637Z,999.8
2017-10-28T04:57:51.292Z,999.8
2017-10-28T04:58:52.005Z,999.9
2017-10-28T04:59:52.718Z,999.8
2017-10-28T05:00:53.381Z,999.8
2017-10-28T05:01:54.046Z,999.8
2017-10-28T05:02:54.707Z,999.7
2017-10-28T05:03:55.369Z,999.6
2017-10-28T05:04:56.031Z,999.7
2017-10-28T05:05:56.693Z,999.7
2017-10-28T05:06:57.357Z,999.6
2017-10-28T05:07:58.020Z,999.7
2017-10-28T05:08:58.684Z,999.6
2017-10-28T05:09:59.345Z,999.6
2017-10-28T05:11:00.009Z,999.6
2017-10-28T05:12:00.671Z,999.6
2017-10-28T05:13:01.383Z,999.6
2017-10-28T05:14:02.046Z,999.5
2017-10-28T05:15:02.707Z,999.6
2017-10-28T05:16:03.406Z,999.6
2017-10-28T05:17:04.069Z,999.6
2017-10-28T05:18:04.731Z,999.5
2017-10-28T05:19:05.395Z,999.5
2017-10-28T05:20:06.057Z,999.6
2017-10-28T05:21:06.719Z,999.5
2017-10-28T05:22:07.383Z,999.4
2017-10-28T05:23:08.099Z,999.4
2017-10-28T05:24:08.757Z,999.4
2017-10-28T05:25:09.456Z,999.5
2017-10-28T05:26:10.168Z,999.4
2017-10-28T05:27:10.830Z,999.5
2017-10-28T05:28:11.493Z,999.4
2017-10-28T05:29:12.160Z,999.5
2017-10-28T05:30:12.904Z,999.5
2017-10-28T05:31:13.566Z,999.4
2017-10-28T05:32:14.230Z,999.3
2017-10-28T05:33:14.893Z,999.4
2017-10-28T05:34:15.556Z,999.4
2017-10-28T05:35:16.218Z,999.4
2017-10-28T05:36:16.930Z,999.4
2017-10-28T05:37:17.593Z,999.4
2017-10-28T05:38:18.257Z,999.3
2017-10-28T05:39:18.969Z,999.2
2017-10-28T05:40:19.633Z,999.2
2017-10-28T05:41:20.299Z,999.1
2017-10-28T05:42:20.963Z,999.1
2017-10-28T05:43:21.632Z,999.1
2017-10-28T05:44:22.290Z,999.1
2017-10-28T05:45:22.952Z,999.1
2017-10-28T05:46:23.615Z,999.2
2017-10-28T05:47:24.290Z,999.2
2017-10-28T05:48:24.942Z,999.1
2017-10-28T05:49:25.653Z,999.1
2017-10-28T05:50:26.317Z,999.2
2017-10-28T05:51:27.032Z,999.2
2017-10-28T05:52:27.745Z,999.2
2017-10-28T05:53:28.409Z,999.2
2017-10-28T05:54:29.074Z,999.1
2017-10-28T05:55:29.786Z,999.2
2017-10-28T05:56:30.502Z,999.1
2017-10-28T05:57:31.166Z,999.0
2017-10-28T05:58:31.830Z,999.0
2017-10-28T05:59:32.492Z,999.1
2017-10-28T06:00:33.209Z,999.1
2017-10-28T06:01:33.874Z,999.1
2017-10-28T06:02:34.537Z,999.0
2017-10-28T06:03:35.253Z,999.0
2017-10-28T06:04:35.916Z,999.1
2017-10-28T06:05:36.630Z,999.0
2017-10-28T06:06:37.295Z,998.9
2017-10-28T06:07:37.960Z,998.9
2017-10-28T06:08:38.632Z,998.9
2017-10-28T06:09:39.289Z,998.8
2017-10-28T06:10:39.952Z,998.8
2017-10-28T06:11:40.666Z,998.8
2017-10-28T06:12:41.334Z,998.8
2017-10-28T06:13:42.033Z,998.8
2017-10-28T06:14:42.731Z,998.8
2017-10-28T06:15:43.395Z,998.8
2017-10-28T06:16:44.061Z,998.8
2017-10-28T06:17:44.726Z,998.7
2017-10-28T06:18:45.443Z,998.7
2017-10-28T06:19:46.144Z,998.6
2017-10-28T06:20:46.841Z,998.5
2017-10-28T06:21:47.477Z,998.5
2017-10-28T06:22:48.144Z,998.4
2017-10-28T06:23:48.807Z,998.4
2017-10-28T06:24:49.523Z,998.4
2017-10-28T06:25:50.192Z,998.4
2017-10-28T06:26:50.907Z,998.4
2017-10-28T06:27:51.580Z,998.3
2017-10-28T06:28:52.278Z,998.4
2017-10-28T06:29:52.944Z,998.4
2017-10-28T06:30:53.663Z,998.4
2017-10-28T06:31:54.330Z,998.4
2017-10-28T06:32:54.997Z,998.4
2017-10-28T06:33:55.666Z,998.3
2017-10-28T06:34:56.334Z,998.3
2017-10-28T06:35:56.997Z,998.4
2017-10-28T06:36:57.665Z,998.4
2017-10-28T06:37:58.332Z,998.4
2017-10-28T06:38:58.999Z,998.3
2017-10-28T06:39:59.665Z,998.3
2017-10-28T06:41:00.382Z,998.3
2017-10-28T06:42:01.060Z,998.2
2017-10-28T06:43:01.809Z,998.3
2017-10-28T06:44:02.521Z,998.3
2017-10-28T06:45:03.237Z,998.3
2017-10-28T06:46:03.903Z,998.3
2017-10-28T06:47:04.570Z,998.3
2017-10-28T06:48:05.237Z,998.2
2017-10-28T06:49:05.905Z,998.3
2017-10-28T06:50:06.574Z,998.1
2017-10-28T06:51:07.242Z,998.2
2017-10-28T06:52:07.908Z,998.2
2017-10-28T06:53:08.575Z,998.2
2017-10-28T06:54:09.276Z,998.2
2017-10-28T06:55:09.994Z,998.3
2017-10-28T06:56:10.660Z,998.3
2017-10-28T06:57:11.327Z,998.3
2017-10-28T06:58:12.045Z,998.3
2017-10-28T06:59:12.712Z,998.2
2017-10-28T07:00:13.429Z,998.3
2017-10-28T07:01:14.095Z,998.3
2017-10-28T07:02:14.762Z,998.2
2017-10-28T07:03:15.429Z,998.2
2017-10-28T07:04:16.129Z,998.2
2017-10-28T07:05:16.845Z,998.2
2017-10-28T07:06:17.564Z,998.3
2017-10-28T07:07:18.281Z,998.3
2017-10-28T07:08:18.947Z,998.3
2017-10-28T07:09:19.614Z,998.3
2017-10-28T07:10:20.281Z,998.2
2017-10-28T07:11:20.948Z,998.2
2017-10-28T07:12:21.613Z,998.1
2017-10-28T07:13:22.281Z,998.2
2017-10-28T07:14:22.948Z,998.2
2017-10-28T07:15:23.617Z,998.2
2017-10-28T07:16:24.284Z,998.2
2017-10-28T07:17:24.951Z,998.1
2017-10-28T07:18:25.667Z,998.1
2017-10-28T07:19:26.383Z,998.1
2017-10-28T07:20:27.051Z,998.1
2017-10-28T07:21:27.769Z,998.2
2017-10-28T07:22:28.437Z,998.1
2017-10-28T07:23:29.153Z,998.2
2017-10-28T07:24:29.819Z,998.2
2017-10-28T07:25:30.534Z,998.1
2017-10-28T07:26:31.203Z,998.2
2017-10-28T07:27:31.920Z,998.2
2017-10-28T07:28:32.587Z,998.3
2017-10-28T07:29:33.304Z,998.3
2017-10-28T07:30:33.971Z,998.2
2017-10-28T07:31:34.639Z,998.2
2017-10-28T07:32:35.311Z,998.3
2017-10-28T07:33:35.976Z,998.3
2017-10-28T07:34:36.692Z,998.2
2017-10-28T07:35:37.360Z,998.3
2017-10-28T07:36:38.076Z,998.3
2017-10-28T07:37:38.744Z,998.3
2017-10-28T07:38:39.412Z,998.3
2017-10-28T07:39:40.131Z,998.3
2017-10-28T07:40:40.797Z,998.2
2017-10-28T07:41:41.514Z,998.3
2017-10-28T07:42:42.231Z,998.2
2017-10-28T07:43:42.900Z,998.1
2017-10-28T07:44:43.568Z,998.2
2017-10-28T07:45:44.236Z,998.2
2017-10-28T07:46:44.912Z,998.0
2017-10-28T07:47:45.622Z,998.0
2017-10-28T07:48:46.289Z,998.0
2017-10-28T07:49:46.958Z,998.0
2017-10-28T07:50:47.626Z,998.0
2017-10-28T07:51:48.296Z,997.9
2017-10-28T07:52:48.966Z,998.0
2017-10-28T07:53:49.630Z,997.9
2017-10-28T07:54:50.349Z,998.0
2017-10-28T07:55:51.024Z,997.9
2017-10-28T07:56:51.687Z,997.9
2017-10-28T07:57:52.355Z,997.8
2017-10-28T07:58:53.023Z,997.9
2017-10-28T07:59:53.740Z,997.9
2017-10-28T08:00:54.408Z,997.8
2017-10-28T08:01:55.076Z,997.9
2017-10-28T08:02:55.801Z,997.9
2017-10-28T08:03:56.495Z,997.8
2017-10-28T08:04:57.169Z,997.9
2017-10-28T08:05:57.832Z,997.8
2017-10-28T08:06:58.497Z,998.0
2017-10-28T08:07:59.163Z,998.1
2017-10-28T08:08:59.831Z,998.0
2017-10-28T08:10:00.501Z,998.0
2017-10-28T08:11:01.169Z,998.0
2017-10-28T08:12:01.836Z,998.0
2017-10-28T08:13:02.501Z,998.0
2017-10-28T08:14:03.257Z,997.9
2017-10-28T08:15:03.924Z,997.9
2017-10-28T08:16:04.591Z,997.9
2017-10-28T08:17:05.257Z,997.9
2017-10-28T08:18:05.932Z,997.7
2017-10-28T08:19:06.593Z,997.7
2017-10-28T08:20:07.263Z,997.6
2017-10-28T08:21:07.979Z,997.6
2017-10-28T08:22:08.649Z,997.6
2017-10-28T08:23:09.319Z,997.5
2017-10-28T08:24:09.986Z,997.5
2017-10-28T08:25:10.655Z,997.4
2017-10-28T08:26:11.322Z,997.3
2017-10-28T08:27:11.992Z,997.3
2017-10-28T08:28:12.663Z,997.3
2017-10-28T08:29:13.415Z,997.3
2017-10-28T08:30:14.083Z,997.2
2017-10-28T08:31:14.802Z,997.1
2017-10-28T08:32:15.522Z,997.2
2017-10-28T08:33:16.191Z,997.1
2017-10-28T08:34:16.912Z,997.1
2017-10-28T08:35:17.580Z,997.2
2017-10-28T08:36:18.256Z,997.2
2017-10-28T08:37:18.918Z,997.1
2017-10-28T08:38:19.586Z,997.1
2017-10-28T08:39:20.255Z,997.1
2017-10-28T08:40:20.928Z,997.1
2017-10-28T08:41:21.594Z,997.1
2017-10-28T08:42:22.305Z,997.0
2017-10-28T08:43:23.008Z,997.1
2017-10-28T08:44:23.677Z,997.0
2017-10-28T08:45:24.395Z,997.1
2017-10-28T08:46:25.064Z,997.0
2017-10-28T08:47:25.731Z,997.0
2017-10-28T08:48:26.400Z,997.1
2017-10-28T08:49:27.071Z,996.9
2017-10-28T08:50:27.791Z,996.9
2017-10-28T08:51:28.461Z,997.0
2017-10-28T08:52:29.130Z,997.0
2017-10-28T08:53:29.848Z,996.9
2017-10-28T08:54:30.594Z,997.0
2017-10-28T08:55:31.239Z,997.0
2017-10-28T08:56:31.944Z,996.8
2017-10-28T08:57:32.665Z,997.0
2017-10-28T08:58:33.384Z,996.9
2017-10-28T08:59:34.038Z,997.0
2017-10-28T09:00:34.742Z,997.0
2017-10-28T09:01:35.411Z,996.9
2017-10-28T09:02:36.132Z,997.0
2017-10-28T09:03:36.800Z,997.0
2017-10-28T09:04:37.470Z,996.9
2017-10-28T09:05:38.140Z,997.1
2017-10-28T09:06:38.858Z,996.8
2017-10-28T09:07:39.580Z,996.8
2017-10-28T09:08:40.250Z,996.7
2017-10-28T09:09:40.919Z,996.7
2017-10-28T09:10:41.639Z,996.7
2017-10-28T09:11:42.310Z,996.8
2017-10-28T09:12:42.981Z,996.9
2017-10-28T09:13:43.700Z,996.9
2017-10-28T09:14:44.369Z,996.8
2017-10-28T09:15:45.038Z,996.8
2017-10-28T09:16:45.708Z,996.9
2017-10-28T09:17:46.379Z,996.8
2017-10-28T09:18:47.098Z,996.8
2017-10-28T09:19:47.822Z,996.8
2017-10-28T09:20:48.491Z,996.7
2017-10-28T09:21:49.166Z,996.8
2017-10-28T09:22:49.832Z,996.8
2017-10-28T09:23:50.551Z,996.7
2017-10-28T09:24:51.275Z,996.7
2017-10-28T09:25:51.945Z,996.8
2017-10-28T09:26:52.612Z,996.8
2017-10-28T09:27:53.283Z,996.8
2017-10-28T09:28:53.958Z,996.8
2017-10-28T09:29:54.621Z,996.6
2017-10-28T09:30:55.293Z,996.7
2017-10-28T09:31:56.012Z,996.6
2017-10-28T09:32:56.682Z,996.7
2017-10-28T09:33:57.354Z,996.5
2017-10-28T09:34:58.022Z,996.6
2017-10-28T09:35:58.692Z,996.6
2017-10-28T09:36:59.363Z,996.6
2017-10-28T09:38:00.032Z,996.6
2017-10-28T09:39:00.703Z,996.6
2017-10-28T09:40:01.372Z,996.6
2017-10-28T09:41:02.091Z,996.6
2017-10-28T09:42:02.760Z,996.6
2017-10-28T09:43:03.429Z,996.6
2017-10-28T09:44:04.097Z,996.6
2017-10-28T09:45:04.765Z,996.7
2017-10-28T09:46:05.486Z,996.7
2017-10-28T09:47:06.155Z,996.6
2017-10-28T09:48:06.832Z,996.5
2017-10-28T09:49:07.495Z,996.5
2017-10-28T09:50:08.166Z,996.4
2017-10-28T09:51:08.835Z,996.3
2017-10-28T09:52:09.505Z,996.5
2017-10-28T09:53:10.178Z,996.4
2017-10-28T09:54:10.846Z,996.4
2017-10-28T09:55:11.516Z,996.5
2017-10-28T09:56:12.186Z,996.3
2017-10-28T09:57:12.855Z,996.3
2017-10-28T09:58:13.523Z,996.3
2017-10-28T09:59:14.194Z,996.4
2017-10-28T10:00:14.870Z,996.4
2017-10-28T10:01:15.537Z,996.3
2017-10-28T10:02:16.257Z,996.3
2017-10-28T10:03:16.927Z,996.4
2017-10-28T10:04:17.648Z,996.4
2017-10-28T10:05:18.366Z,996.4
2017-10-28T10:06:19.086Z,996.3
2017-10-28T10:07:19.756Z,996.3
2017-10-28T10:08:20.425Z,996.3
2017-10-28T10:09:21.098Z,996.4
2017-10-28T10:10:21.821Z,996.4
2017-10-28T10:11:22.486Z,996.3
2017-10-28T10:12:23.205Z,996.3
2017-10-28T10:13:23.877Z,996.3
2017-10-28T10:14:24.558Z,996.3
2017-10-28T10:15:25.215Z,996.3
2017-10-28T10:16:25.935Z,996.2
2017-10-28T10:17:26.605Z,996.2
2017-10-28T10:18:27.275Z,996.2
2017-10-28T10:19:27.980Z,996.1
2017-10-28T10:20:28.652Z,996.2
2017-10-28T10:21:29.373Z,996.1
2017-10-28T10:22:30.042Z,996.1
2017-10-28T10:23:30.712Z,996.1
2017-10-28T10:24:31.382Z,996.1
2017-10-28T10:25:32.058Z,996.1
2017-10-28T10:26:32.771Z,996.1
2017-10-28T10:27:33.485Z,996.1
2017-10-28T10:28:34.148Z,996.1
2017-10-28T10:29:34.817Z,996.0
2017-10-28T10:30:35.487Z,996.0
2017-10-28T10:31:36.210Z,995.9
2017-10-28T10:32:36.883Z,995.9
2017-10-28T10:33:37.553Z,995.9
2017-10-28T10:34:38.255Z,995.9
2017-10-28T10:35:38.925Z,995.8
2017-10-28T10:36:39.686Z,995.8
2017-10-28T10:37:40.351Z,995.9
2017-10-28T10:38:41.020Z,995.8
2017-10-28T10:39:41.690Z,995.7
2017-10-28T10:40:42.361Z,995.7
2017-10-28T10:41:43.031Z,995.6
2017-10-28T10:42:43.699Z,995.7
2017-10-28T10:43:44.372Z,995.6
2017-10-28T10:44:45.093Z,995.5
2017-10-28T10:45:45.764Z,995.5
2017-10-28T10:46:46.435Z,995.6
2017-10-28T10:47:47.155Z,995.5
2017-10-28T10:48:47.827Z,995.4
2017-10-28T10:49:48.497Z,995.4
2017-10-28T10:50:49.217Z,995.4
2017-10-28T10:51:49.887Z,995.4
2017-10-28T10:52:50.557Z,995.5
2017-10-28T10:53:51.281Z,995.4
2017-10-28T10:54:51.948Z,995.4
2017-10-28T10:55:52.619Z,995.4
2017-10-28T10:56:53.290Z,995.3
2017-10-28T10:57:53.998Z,995.2
2017-10-28T10:58:54.668Z,995.4
2017-10-28T10:59:55.404Z,995.4
2017-10-28T11:00:56.059Z,995.5
2017-10-28T11:01:56.728Z,995.3
2017-10-28T11:02:57.450Z,995.2
2017-10-28T11:03:58.170Z,995.2
2017-10-28T11:04:58.890Z,995.3
2017-10-28T11:05:59.562Z,995.1
2017-10-28T11:07:00.280Z,995.1
2017-10-28T11:08:00.951Z,995.1
2017-10-28T11:09:01.637Z,995.0
2017-10-28T11:10:02.328Z,995.0
2017-10-28T11:11:03.047Z,995.1
2017-10-28T11:12:03.717Z,995.1
2017-10-28T11:13:04.385Z,995.1
2017-10-28T11:14:05.102Z,995.1
2017-10-28T11:15:05.823Z,995.1
2017-10-28T11:16:06.490Z,995.1
2017-10-28T11:17:07.160Z,995.2
2017-10-28T11:18:07.833Z,995.1
2017-10-28T11:19:08.588Z,995.0
2017-10-28T11:20:09.308Z,995.1
2017-10-28T11:21:09.976Z,995.0
2017-10-28T11:22:10.644Z,995.0
2017-10-28T11:23:11.364Z,995.0
2017-10-28T11:24:12.033Z,995.0
2017-10-28T11:25:12.701Z,995.0
2017-10-28T11:26:13.374Z,995.1
2017-10-28T11:27:14.037Z,995.0
2017-10-28T11:28:14.754Z,995.0
2017-10-28T11:29:15.424Z,995.1
2017-10-28T11:30:16.095Z,994.9
2017-10-28T11:31:16.762Z,994.9
2017-10-28T11:32:17.431Z,994.8
2017-10-28T11:33:18.112Z,994.8
2017-10-28T11:34:18.770Z,994.9
2017-10-28T11:35:19.436Z,994.7
2017-10-28T11:36:20.105Z,994.7
2017-10-28T11:37:20.774Z,994.6
2017-10-28T11:38:21.442Z,994.6
2017-10-28T11:39:22.113Z,994.6
2017-10-28T11:40:22.782Z,994.6
2017-10-28T11:41:23.454Z,994.6
2017-10-28T11:42:24.123Z,994.6
2017-10-28T11:43:24.792Z,994.6
2017-10-28T11:44:25.460Z,994.5
2017-10-28T11:45:26.131Z,994.5
2017-10-28T11:46:26.801Z,994.4
2017-10-28T11:47:27.471Z,994.4
2017-10-28T11:48:28.141Z,994.3
2017-10-28T11:49:28.862Z,994.5
2017-10-28T11:50:29.580Z,994.4
2017-10-28T11:51:30.250Z,994.4
2017-10-28T11:52:30.918Z,994.4
2017-10-28T11:53:31.588Z,994.4
2017-10-28T11:54:32.258Z,994.4
2017-10-28T11:55:32.976Z,994.4
2017-10-28T11:56:33.697Z,994.5
2017-10-28T11:57:34.367Z,994.4
2017-10-28T11:58:35.071Z,994.3
2017-10-28T11:59:35.741Z,994.4
2017-10-28T12:00:36.495Z,994.4
2017-10-28T12:01:37.212Z,994.4
2017-10-28T12:02:37.884Z,994.3
2017-10-28T12:03:38.604Z,994.3
2017-10-28T12:04:39.272Z,994.3
2017-10-28T12:05:39.993Z,994.3
2017-10-28T12:06:40.663Z,994.3
2017-10-28T12:07:41.333Z,994.2
2017-10-28T12:08:42.052Z,994.2
2017-10-28T12:09:42.724Z,994.1
2017-10-28T12:10:43.408Z,994.3
2017-10-28T12:11:44.109Z,994.2
2017-10-28T12:12:44.779Z,994.3
2017-10-28T12:13:45.446Z,994.3
2017-10-28T12:14:46.165Z,994.2
2017-10-28T12:15:46.836Z,994.3
2017-10-28T12:16:47.554Z,994.2
2017-10-28T12:17:48.274Z,994.2
2017-10-28T12:18:48.945Z,994.1
2017-10-28T12:19:49.614Z,994.0
2017-10-28T12:20:50.284Z,994.1
2017-10-28T12:21:50.955Z,994.1
2017-10-28T12:22:51.625Z,994.0
2017-10-28T12:23:52.296Z,994.0
2017-10-28T12:24:52.964Z,994.1
2017-10-28T12:25:53.686Z,994.1
2017-10-28T12:26:54.352Z,994.1
2017-10-28T12:27:55.021Z,994.0
2017-10-28T12:28:55.690Z,994.0
2017-10-28T12:29:56.359Z,994.1
2017-10-28T12:30:57.080Z,994.1
2017-10-28T12:31:57.800Z,994.2
2017-10-28T12:32:58.470Z,994.1
2017-10-28T12:33:59.140Z,994.1
2017-10-28T12:34:59.862Z,994.0
2017-10-28T12:36:00.582Z,994.0
2017-10-28T12:37:01.251Z,994.0
2017-10-28T12:38:01.921Z,994.0
2017-10-28T12:39:02.592Z,994.0
2017-10-28T12:40:03.263Z,994.0
2017-10-28T12:41:03.934Z,993.9
2017-10-28T12:42:04.605Z,993.9
2017-10-28T12:43:05.324Z,993.9
2017-10-28T12:44:05.996Z,993.9
2017-10-28T12:45:06.716Z,993.8
2017-10-28T12:46:07.386Z,993.8
2017-10-28T12:47:08.056Z,993.7
2017-10-28T12:48:08.725Z,993.8
2017-10-28T12:49:09.397Z,993.8
2017-10-28T12:50:10.100Z,993.8
2017-10-28T12:51:10.773Z,993.9
2017-10-28T12:52:11.442Z,993.9